createdAt,value
2018-08-27T00:00:29.356Z,16.63
2018-08-27T00:01:29.443Z,16.72
2018-08-27T00:02:29.386Z,16.81
2018-08-27T00:03:29.438Z,16.84
2018-08-27T00:04:29.641Z,16.95
2018-08-27T00:05:29.408Z,16.88
2018-08-27T00:06:29.456Z,16.85
2018-08-27T00:07:29.390Z,16.81
2018-08-27T00:08:29.419Z,16.92
2018-08-27T00:09:29.401Z,16.92
2018-08-27T00:10:28.947Z,16.84
2018-08-27T00:11:29.406Z,16.87
2018-08-27T00:12:29.406Z,16.95
2018-08-27T00:13:29.451Z,16.91
2018-08-27T00:14:29.410Z,16.88
2018-08-27T00:15:29.658Z,16.91
2018-08-27T00:16:29.420Z,16.90
2018-08-27T00:17:29.566Z,16.88
2018-08-27T00:18:29.665Z,16.84
2018-08-27T00:19:29.469Z,16.98
2018-08-27T00:20:29.497Z,17.00
2018-08-27T00:21:29.467Z,17.05
2018-08-27T00:22:29.440Z,16.88
2018-08-27T00:23:29.417Z,17.10
2018-08-27T00:24:28.912Z,17.09
2018-08-27T00:25:29.423Z,17.00
2018-08-27T00:26:29.380Z,16.98
2018-08-27T00:27:29.508Z,16.92
2018-08-27T00:28:29.488Z,17.00
2018-08-27T00:29:29.528Z,16.85
2018-08-27T00:30:29.456Z,16.90
2018-08-27T00:31:29.351Z,17.07
2018-08-27T00:32:29.493Z,16.92
2018-08-27T00:33:29.060Z,16.96
2018-08-27T00:34:29.553Z,16.90
2018-08-27T00:35:29.493Z,16.88
2018-08-27T00:36:29.431Z,16.99
2018-08-27T00:37:29.752Z,16.87
2018-08-27T00:38:29.150Z,16.80
2018-08-27T00:39:29.764Z,16.78
2018-08-27T00:40:28.804Z,16.87
2018-08-27T00:41:29.426Z,16.77
2018-08-27T00:42:29.420Z,16.88
2018-08-27T00:43:29.384Z,16.88
2018-08-27T00:44:29.462Z,16.85
2018-08-27T00:45:29.446Z,16.75
2018-08-27T00:46:29.442Z,16.77
2018-08-27T00:47:29.652Z,16.73
2018-08-27T00:48:29.496Z,16.75
2018-08-27T00:49:29.480Z,16.67
2018-08-27T00:50:29.685Z,16.80
2018-08-27T00:51:29.428Z,16.92
2018-08-27T00:52:29.426Z,16.84
2018-08-27T00:53:29.636Z,16.75
2018-08-27T00:54:29.637Z,16.81
2018-08-27T00:55:29.480Z,16.84
2018-08-27T00:56:29.692Z,16.91
2018-08-27T00:57:29.470Z,16.78
2018-08-27T00:58:29.535Z,16.75
2018-08-27T00:59:29.697Z,16.72
2018-08-27T01:00:29.469Z,16.77
2018-08-27T01:01:29.640Z,16.78
2018-08-27T01:02:29.210Z,16.84
2018-08-27T01:03:29.386Z,16.77
2018-08-27T01:04:29.417Z,16.72
2018-08-27T01:05:29.464Z,16.73
2018-08-27T01:06:29.705Z,16.72
2018-08-27T01:07:29.412Z,16.84
2018-08-27T01:08:29.481Z,16.82
2018-08-27T01:09:28.862Z,16.82
2018-08-27T01:10:29.408Z,16.78
2018-08-27T01:11:29.405Z,16.80
2018-08-27T01:12:29.397Z,16.73
2018-08-27T01:13:29.487Z,16.91
2018-08-27T01:14:29.474Z,16.80
2018-08-27T01:15:28.848Z,16.92
2018-08-27T01:16:29.713Z,16.81
2018-08-27T01:17:29.288Z,16.81
2018-08-27T01:18:29.200Z,16.85
2018-08-27T01:19:29.226Z,16.84
2018-08-27T01:20:29.245Z,16.77
2018-08-27T01:21:29.319Z,16.87
2018-08-27T01:22:29.189Z,16.95
2018-08-27T01:23:29.186Z,16.85
2018-08-27T01:24:29.265Z,16.85
2018-08-27T01:25:29.173Z,16.90
2018-08-27T01:26:29.275Z,16.81
2018-08-27T01:27:31.147Z,16.87
2018-08-27T01:28:31.166Z,16.90
2018-08-27T01:29:29.152Z,17.00
2018-08-27T01:30:28.799Z,16.95
2018-08-27T01:31:29.085Z,16.91
2018-08-27T01:32:29.125Z,16.85
2018-08-27T01:33:28.996Z,16.88
2018-08-27T01:34:28.927Z,16.91
2018-08-27T01:35:28.995Z,16.88
2018-08-27T01:36:29.080Z,16.80
2018-08-27T01:37:28.847Z,16.87
2018-08-27T01:38:29.194Z,16.84
2018-08-27T01:39:29.186Z,16.88
2018-08-27T01:40:29.096Z,16.91
2018-08-27T01:41:28.994Z,16.91
2018-08-27T01:42:29.067Z,16.91
2018-08-27T01:43:28.953Z,16.88
2018-08-27T01:44:28.998Z,16.91
2018-08-27T01:45:28.998Z,16.84
2018-08-27T01:46:29.164Z,16.90
2018-08-27T01:47:29.053Z,16.96
2018-08-27T01:48:29.029Z,16.88
2018-08-27T01:49:29.187Z,16.95
2018-08-27T01:50:29.108Z,16.84
2018-08-27T01:51:29.096Z,17.02
2018-08-27T01:52:29.008Z,16.88
2018-08-27T01:53:29.017Z,16.84
2018-08-27T01:54:29.068Z,17.02
2018-08-27T01:55:30.939Z,17.02
2018-08-27T01:56:29.240Z,17.09
2018-08-27T01:57:29.722Z,17.06
2018-08-27T01:58:28.702Z,17.02
2018-08-27T01:59:29.011Z,17.10
2018-08-27T02:00:29.094Z,17.05
2018-08-27T02:01:29.351Z,17.00
2018-08-27T02:02:29.208Z,17.05
2018-08-27T02:03:29.160Z,17.05
2018-08-27T02:04:31.113Z,16.96
2018-08-27T02:05:29.112Z,16.98
2018-08-27T02:06:29.175Z,17.00
2018-08-27T02:07:29.161Z,17.09
2018-08-27T02:08:29.139Z,17.03
2018-08-27T02:09:29.274Z,16.99
2018-08-27T02:10:29.024Z,17.05
2018-08-27T02:11:29.198Z,17.07
2018-08-27T02:12:28.986Z,17.03
2018-08-27T02:13:28.932Z,16.98
2018-08-27T02:14:29.092Z,17.07
2018-08-27T02:15:29.174Z,17.15
2018-08-27T02:16:29.185Z,17.05
2018-08-27T02:17:29.188Z,17.05
2018-08-27T02:18:28.960Z,17.07
2018-08-27T02:19:28.650Z,17.03
2018-08-27T02:20:29.179Z,17.05
2018-08-27T02:21:29.687Z,16.98
2018-08-27T02:22:29.136Z,17.09
2018-08-27T02:23:29.180Z,17.12
2018-08-27T02:24:29.080Z,17.02
2018-08-27T02:25:29.219Z,17.03
2018-08-27T02:26:29.068Z,17.09
2018-08-27T02:27:29.163Z,17.05
2018-08-27T02:28:29.093Z,17.00
2018-08-27T02:29:28.739Z,16.90
2018-08-27T02:30:30.942Z,16.99
2018-08-27T02:31:29.141Z,16.92
2018-08-27T02:32:29.053Z,16.90
2018-08-27T02:33:29.113Z,16.91
2018-08-27T02:34:29.191Z,16.78
2018-08-27T02:35:28.640Z,16.77
2018-08-27T02:36:29.072Z,16.87
2018-08-27T02:37:29.169Z,16.91
2018-08-27T02:38:31.184Z,16.82
2018-08-27T02:39:31.182Z,16.82
2018-08-27T02:40:29.047Z,16.82
2018-08-27T02:41:28.997Z,16.84
2018-08-27T02:42:28.961Z,16.73
2018-08-27T02:43:29.032Z,16.75
2018-08-27T02:44:29.055Z,16.81
2018-08-27T02:45:28.935Z,16.81
2018-08-27T02:46:29.005Z,16.77
2018-08-27T02:47:29.628Z,16.81
2018-08-27T02:48:29.020Z,16.84
2018-08-27T02:49:28.994Z,16.80
2018-08-27T02:50:28.976Z,16.77
2018-08-27T02:51:29.551Z,16.67
2018-08-27T02:52:28.947Z,16.65
2018-08-27T02:53:29.224Z,16.63
2018-08-27T02:54:29.290Z,16.59
2018-08-27T02:55:29.180Z,16.54
2018-08-27T02:56:29.195Z,16.57
2018-08-27T02:57:29.054Z,16.41
2018-08-27T02:58:29.065Z,16.36
2018-08-27T02:59:30.189Z,16.33
2018-08-27T03:00:28.989Z,16.27
2018-08-27T03:01:29.110Z,16.23
2018-08-27T03:02:29.585Z,16.14
2018-08-27T03:03:31.185Z,16.04
2018-08-27T03:04:28.698Z,16.01
2018-08-27T03:05:29.192Z,16.03
2018-08-27T03:06:28.964Z,15.96
2018-08-27T03:07:29.238Z,15.99
2018-08-27T03:08:29.116Z,15.96
2018-08-27T03:09:29.556Z,15.81
2018-08-27T03:10:28.999Z,15.85
2018-08-27T03:11:28.950Z,15.88
2018-08-27T03:12:28.987Z,15.78
2018-08-27T03:13:28.933Z,15.77
2018-08-27T03:14:28.940Z,15.70
2018-08-27T03:15:28.970Z,15.78
2018-08-27T03:16:28.982Z,15.71
2018-08-27T03:17:28.427Z,15.70
2018-08-27T03:18:28.602Z,15.56
2018-08-27T03:19:29.056Z,15.58
2018-08-27T03:20:29.292Z,15.55
2018-08-27T03:21:28.698Z,15.51
2018-08-27T03:22:28.987Z,15.55
2018-08-27T03:23:29.243Z,15.55
2018-08-27T03:24:29.037Z,15.59
2018-08-27T03:25:29.064Z,15.76
2018-08-27T03:26:29.074Z,15.56
2018-08-27T03:27:29.017Z,15.58
2018-08-27T03:28:29.114Z,15.55
2018-08-27T03:29:29.055Z,15.58
2018-08-27T03:30:30.483Z,15.58
2018-08-27T03:31:29.137Z,15.76
2018-08-27T03:32:29.553Z,15.73
2018-08-27T03:33:30.817Z,15.59
2018-08-27T03:34:29.002Z,15.55
2018-08-27T03:35:29.277Z,15.53
2018-08-27T03:36:28.574Z,15.58
2018-08-27T03:37:28.705Z,15.58
2018-08-27T03:38:29.022Z,15.68
2018-08-27T03:39:29.029Z,15.70
2018-08-27T03:40:29.063Z,15.70
2018-08-27T03:41:28.973Z,15.58
2018-08-27T03:42:28.951Z,15.62
2018-08-27T03:43:28.980Z,15.62
2018-08-27T03:44:29.236Z,15.70
2018-08-27T03:45:29.040Z,15.66
2018-08-27T03:46:29.182Z,15.56
2018-08-27T03:47:28.969Z,15.53
2018-08-27T03:48:28.994Z,15.55
2018-08-27T03:49:29.044Z,15.51
2018-08-27T03:50:29.035Z,15.62
2018-08-27T03:51:29.301Z,15.53
2018-08-27T03:52:29.681Z,15.46
2018-08-27T03:53:29.083Z,15.51
2018-08-27T03:54:29.307Z,15.55
2018-08-27T03:55:29.226Z,15.58
2018-08-27T03:56:29.245Z,15.66
2018-08-27T03:57:29.018Z,15.59
2018-08-27T03:58:29.009Z,15.68
2018-08-27T03:59:28.955Z,15.60
2018-08-27T04:00:29.239Z,15.60
2018-08-27T04:01:29.112Z,15.60
2018-08-27T04:02:29.536Z,15.56
2018-08-27T04:03:29.012Z,15.53
2018-08-27T04:04:29.554Z,15.64
2018-08-27T04:05:29.013Z,15.60
2018-08-27T04:06:29.309Z,15.62
2018-08-27T04:07:28.695Z,15.62
2018-08-27T04:08:29.545Z,15.55
2018-08-27T04:09:28.947Z,15.49
2018-08-27T04:10:30.790Z,15.51
2018-08-27T04:11:29.026Z,15.43
2018-08-27T04:12:29.201Z,15.52
2018-08-27T04:13:28.766Z,15.56
2018-08-27T04:14:28.602Z,15.56
2018-08-27T04:15:30.337Z,15.51
2018-08-27T04:16:28.530Z,15.46
2018-08-27T04:17:28.585Z,15.43
2018-08-27T04:18:28.549Z,15.31
2018-08-27T04:19:28.565Z,15.41
2018-08-27T04:20:28.639Z,15.46
2018-08-27T04:21:28.722Z,15.59
2018-08-27T04:22:28.737Z,15.53
2018-08-27T04:23:28.717Z,15.56
2018-08-27T04:24:28.831Z,15.53
2018-08-27T04:25:28.626Z,15.41
2018-08-27T04:26:28.608Z,15.43
2018-08-27T04:27:28.616Z,15.56
2018-08-27T04:28:28.454Z,15.58
2018-08-27T04:29:28.843Z,15.44
2018-08-27T04:30:28.784Z,15.41
2018-08-27T04:31:28.727Z,15.46
2018-08-27T04:32:28.983Z,15.49
2018-08-27T04:33:28.368Z,15.44
2018-08-27T04:34:28.958Z,15.52
2018-08-27T04:35:29.072Z,15.35
2018-08-27T04:36:28.612Z,15.30
2018-08-27T04:37:28.874Z,15.30
2018-08-27T04:38:29.150Z,15.34
2018-08-27T04:39:28.715Z,15.22
2018-08-27T04:40:28.628Z,15.33
2018-08-27T04:41:28.956Z,15.37
2018-08-27T04:42:28.741Z,15.25
2018-08-27T04:43:28.580Z,15.33
2018-08-27T04:44:28.562Z,15.25
2018-08-27T04:45:28.540Z,15.13
2018-08-27T04:46:28.711Z,15.11
2018-08-27T04:47:28.147Z,15.12
2018-08-27T04:48:28.538Z,15.20
2018-08-27T04:49:28.613Z,15.20
2018-08-27T04:50:28.713Z,15.18
2018-08-27T04:51:28.681Z,15.13
2018-08-27T04:52:28.713Z,15.13
2018-08-27T04:53:28.810Z,15.16
2018-08-27T04:54:29.024Z,14.93
2018-08-27T04:55:28.722Z,14.97
2018-08-27T04:56:28.959Z,15.07
2018-08-27T04:57:28.636Z,14.93
2018-08-27T04:58:28.722Z,15.00
2018-08-27T04:59:28.754Z,15.13
2018-08-27T05:00:28.603Z,15.00
2018-08-27T05:01:29.334Z,15.03
2018-08-27T05:02:28.572Z,15.07
2018-08-27T05:03:28.555Z,15.00
2018-08-27T05:04:28.561Z,15.00
2018-08-27T05:05:29.018Z,15.00
2018-08-27T05:06:29.069Z,15.00
2018-08-27T05:07:28.607Z,14.95
2018-08-27T05:08:29.231Z,14.97
2018-08-27T05:09:28.753Z,14.97
2018-08-27T05:10:29.075Z,14.97
2018-08-27T05:11:28.805Z,14.94
2018-08-27T05:12:28.640Z,14.95
2018-08-27T05:13:29.253Z,14.87
2018-08-27T05:14:28.760Z,14.95
2018-08-27T05:15:28.800Z,14.95
2018-08-27T05:16:28.768Z,14.91
2018-08-27T05:17:28.762Z,14.87
2018-08-27T05:18:28.754Z,14.82
2018-08-27T05:19:28.515Z,14.75
2018-08-27T05:20:28.771Z,14.72
2018-08-27T05:21:30.334Z,14.66
2018-08-27T05:22:28.619Z,14.82
2018-08-27T05:23:29.067Z,14.85
2018-08-27T05:24:28.728Z,14.85
2018-08-27T05:25:28.851Z,14.69
2018-08-27T05:26:30.382Z,14.64
2018-08-27T05:27:28.011Z,14.69
2018-08-27T05:28:28.779Z,14.74
2018-08-27T05:29:29.096Z,14.86
2018-08-27T05:30:28.798Z,14.82
2018-08-27T05:31:28.569Z,14.75
2018-08-27T05:33:28.824Z,14.94
2018-08-27T05:34:28.768Z,14.87
2018-08-27T05:35:28.589Z,14.82
2018-08-27T05:36:28.594Z,14.80
2018-08-27T05:37:28.542Z,14.69
2018-08-27T05:38:29.329Z,14.75
2018-08-27T05:39:28.725Z,14.94
2018-08-27T05:40:28.586Z,14.91
2018-08-27T05:41:29.063Z,14.85
2018-08-27T05:42:28.524Z,14.93
2018-08-27T05:43:28.579Z,14.87
2018-08-27T05:44:28.579Z,14.82
2018-08-27T05:45:28.513Z,14.80
2018-08-27T05:46:28.773Z,14.72
2018-08-27T05:47:28.109Z,14.75
2018-08-27T05:48:28.762Z,14.79
2018-08-27T05:49:28.769Z,14.83
2018-08-27T05:50:28.809Z,14.90
2018-08-27T05:51:28.218Z,14.91
2018-08-27T05:52:28.805Z,14.86
2018-08-27T05:53:29.075Z,14.85
2018-08-27T05:54:29.093Z,14.90
2018-08-27T05:55:28.791Z,14.90
2018-08-27T05:56:28.812Z,14.90
2018-08-27T05:57:28.667Z,14.75
2018-08-27T05:58:28.504Z,14.75
2018-08-27T05:59:28.329Z,14.79
2018-08-27T06:00:28.783Z,14.82
2018-08-27T06:01:28.339Z,14.91
2018-08-27T06:02:29.356Z,14.83
2018-08-27T06:03:28.804Z,14.85
2018-08-27T06:04:28.528Z,14.74
2018-08-27T06:05:28.281Z,14.78
2018-08-27T06:06:28.104Z,14.79
2018-08-27T06:07:28.756Z,14.83
2018-08-27T06:08:28.813Z,14.93
2018-08-27T06:09:29.194Z,14.94
2018-08-27T06:10:28.799Z,14.64
2018-08-27T06:11:28.336Z,14.82
2018-08-27T06:12:28.273Z,14.91
2018-08-27T06:13:28.286Z,14.72
2018-08-27T06:14:28.741Z,14.79
2018-08-27T06:15:28.802Z,14.83
2018-08-27T06:16:28.749Z,14.72
2018-08-27T06:17:28.778Z,14.82
2018-08-27T06:18:29.079Z,14.93
2018-08-27T06:19:28.778Z,14.83
2018-08-27T06:20:28.276Z,14.90
2018-08-27T06:21:28.670Z,14.98
2018-08-27T06:22:28.910Z,14.94
2018-08-27T06:23:28.734Z,14.86
2018-08-27T06:24:28.652Z,14.91
2018-08-27T06:25:28.246Z,14.95
2018-08-27T06:26:28.839Z,14.93
2018-08-27T06:27:28.613Z,14.93
2018-08-27T06:28:28.822Z,15.01
2018-08-27T06:29:28.734Z,14.97
2018-08-27T06:30:28.664Z,14.91
2018-08-27T06:31:28.802Z,14.94
2018-08-27T06:32:28.269Z,15.00
2018-08-27T06:33:27.862Z,15.01
2018-08-27T06:34:28.289Z,14.90
2018-08-27T06:35:28.799Z,14.91
2018-08-27T06:36:28.553Z,14.90
2018-08-27T06:37:28.581Z,15.00
2018-08-27T06:38:28.440Z,15.00
2018-08-27T06:39:28.164Z,14.97
2018-08-27T06:40:28.734Z,14.94
2018-08-27T06:41:28.689Z,15.04
2018-08-27T06:42:28.875Z,14.94
2018-08-27T06:43:28.115Z,15.15
2018-08-27T06:44:28.631Z,15.13
2018-08-27T06:45:28.106Z,14.97
2018-08-27T06:46:28.311Z,15.04
2018-08-27T06:47:30.626Z,15.00
2018-08-27T06:48:27.800Z,15.04
2018-08-27T06:49:28.631Z,15.09
2018-08-27T06:50:28.022Z,15.15
2018-08-27T06:51:28.324Z,15.18
2018-08-27T06:52:28.372Z,15.20
2018-08-27T06:53:28.232Z,15.20
2018-08-27T06:54:28.757Z,15.16
2018-08-27T06:55:28.249Z,15.19
2018-08-27T06:56:28.244Z,15.16
2018-08-27T06:57:28.246Z,15.09
2018-08-27T06:58:28.596Z,15.18
2018-08-27T06:59:30.295Z,15.15
2018-08-27T07:00:28.671Z,15.20
2018-08-27T07:01:28.790Z,15.22
2018-08-27T07:02:28.252Z,15.16
2018-08-27T07:03:28.283Z,15.23
2018-08-27T07:04:28.620Z,15.23
2018-08-27T07:05:29.158Z,15.30
2018-08-27T07:06:28.346Z,15.25
2018-08-27T07:07:28.135Z,15.27
2018-08-27T07:08:30.594Z,15.31
2018-08-27T07:09:28.567Z,15.27
2018-08-27T07:10:28.042Z,15.33
2018-08-27T07:11:30.328Z,15.28
2018-08-27T07:12:28.297Z,15.30
2018-08-27T07:13:28.285Z,15.27
2018-08-27T07:14:28.250Z,15.22
2018-08-27T07:15:28.354Z,15.31
2018-08-27T07:16:28.254Z,15.33
2018-08-27T07:17:28.507Z,15.38
2018-08-27T07:18:28.297Z,15.34
2018-08-27T07:19:28.250Z,15.31
2018-08-27T07:20:28.353Z,15.37
2018-08-27T07:21:28.287Z,15.40
2018-08-27T07:22:28.126Z,15.43
2018-08-27T07:23:28.025Z,15.43
2018-08-27T07:24:28.292Z,15.52
2018-08-27T07:25:28.749Z,15.55
2018-08-27T07:26:28.298Z,15.56
2018-08-27T07:27:28.653Z,15.56
2018-08-27T07:28:30.163Z,15.60
2018-08-27T07:29:28.100Z,15.52
2018-08-27T07:30:28.130Z,15.56
2018-08-27T07:31:28.292Z,15.56
2018-08-27T07:32:29.366Z,15.68
2018-08-27T07:33:29.948Z,15.70
2018-08-27T07:34:28.791Z,15.76
2018-08-27T07:35:28.241Z,15.67
2018-08-27T07:36:28.321Z,15.77
2018-08-27T07:37:28.258Z,15.78
2018-08-27T07:38:28.620Z,15.78
2018-08-27T07:39:28.027Z,15.77
2018-08-27T07:40:27.760Z,15.71
2018-08-27T07:41:28.257Z,15.78
2018-08-27T07:42:28.347Z,15.81
2018-08-27T07:43:30.365Z,15.71
2018-08-27T07:44:28.374Z,15.76
2018-08-27T07:45:28.285Z,15.84
2018-08-27T07:46:28.371Z,15.86
2018-08-27T07:47:28.252Z,15.96
2018-08-27T07:48:28.324Z,15.99
2018-08-27T07:49:28.294Z,16.01
2018-08-27T07:50:28.317Z,16.04
2018-08-27T07:51:28.798Z,16.04
2018-08-27T07:52:28.312Z,16.07
2018-08-27T07:53:27.697Z,16.03
2018-08-27T07:54:28.261Z,15.99
2018-08-27T07:55:28.304Z,15.98
2018-08-27T07:56:28.367Z,16.11
2018-08-27T07:57:27.611Z,16.14
2018-08-27T07:58:28.364Z,16.22
2018-08-27T07:59:28.282Z,16.16
2018-08-27T08:00:28.334Z,16.26
2018-08-27T08:01:29.883Z,16.26
2018-08-27T08:02:28.116Z,16.27
2018-08-27T08:03:28.307Z,16.25
2018-08-27T08:04:28.300Z,16.27
2018-08-27T08:05:28.343Z,16.32
2018-08-27T08:06:28.293Z,16.42
2018-08-27T08:07:28.384Z,16.47
2018-08-27T08:08:28.325Z,16.42
2018-08-27T08:09:28.151Z,16.50
2018-08-27T08:10:28.066Z,16.36
2018-08-27T08:11:29.806Z,16.47
2018-08-27T08:12:28.615Z,16.51
2018-08-27T08:13:28.315Z,16.41
2018-08-27T08:14:28.264Z,16.48
2018-08-27T08:15:28.332Z,16.42
2018-08-27T08:16:28.085Z,16.62
2018-08-27T08:17:28.263Z,16.52
2018-08-27T08:18:28.289Z,16.47
2018-08-27T08:19:28.620Z,16.57
2018-08-27T08:20:27.818Z,16.59
2018-08-27T08:21:28.289Z,16.62
2018-08-27T08:22:28.267Z,16.69
2018-08-27T08:23:28.329Z,16.72
2018-08-27T08:24:28.317Z,16.73
2018-08-27T08:25:28.114Z,16.73
2018-08-27T08:26:27.820Z,16.77
2018-08-27T08:27:28.747Z,16.63
2018-08-27T08:28:28.718Z,16.72
2018-08-27T08:29:28.338Z,16.75
2018-08-27T08:30:27.847Z,16.82
2018-08-27T08:31:27.771Z,16.88
2018-08-27T08:32:28.630Z,16.95
2018-08-27T08:33:28.276Z,16.88
2018-08-27T08:34:28.145Z,16.87
2018-08-27T08:35:28.266Z,16.92
2018-08-27T08:36:28.817Z,16.88
2018-08-27T08:37:28.345Z,16.98
2018-08-27T08:38:29.933Z,16.99
2018-08-27T08:39:28.369Z,17.14
2018-08-27T08:40:27.841Z,17.07
2018-08-27T08:41:28.647Z,17.09
2018-08-27T08:42:28.357Z,17.14
2018-08-27T08:43:28.719Z,17.17
2018-08-27T08:44:27.811Z,17.18
2018-08-27T08:45:27.460Z,17.22
2018-08-27T08:46:28.775Z,17.27
2018-08-27T08:47:28.631Z,17.22
2018-08-27T08:48:28.656Z,17.22
2018-08-27T08:49:28.418Z,17.20
2018-08-27T08:50:28.064Z,17.17
2018-08-27T08:51:28.108Z,17.27
2018-08-27T08:52:28.090Z,17.28
2018-08-27T08:53:28.661Z,17.27
2018-08-27T08:54:28.291Z,17.15
2018-08-27T08:55:28.288Z,17.24
2018-08-27T08:56:28.273Z,17.21
2018-08-27T08:57:28.361Z,17.27
2018-08-27T08:58:28.371Z,17.30
2018-08-27T08:59:28.282Z,17.36
2018-08-27T09:00:28.396Z,17.35
2018-08-27T09:01:28.462Z,17.25
2018-08-27T09:02:28.299Z,17.22
2018-08-27T09:03:28.288Z,17.18
2018-08-27T09:04:28.780Z,17.22
2018-08-27T09:05:28.205Z,17.15
2018-08-27T09:06:28.257Z,17.17
2018-08-27T09:07:28.259Z,17.20
2018-08-27T09:08:28.737Z,17.18
2018-08-27T09:09:27.775Z,17.24
2018-08-27T09:10:28.353Z,17.28
2018-08-27T09:11:28.640Z,17.32
2018-08-27T09:12:27.846Z,17.35
2018-08-27T09:13:28.323Z,17.36
2018-08-27T09:14:28.281Z,17.36
2018-08-27T09:15:28.144Z,17.36
2018-08-27T09:16:28.637Z,17.46
2018-08-27T09:17:28.158Z,17.42
2018-08-27T09:18:28.287Z,17.51
2018-08-27T09:19:28.365Z,17.43
2018-08-27T09:20:28.380Z,17.51
2018-08-27T09:21:28.742Z,17.49
2018-08-27T09:22:28.803Z,17.46
2018-08-27T09:23:28.281Z,17.51
2018-08-27T09:24:29.854Z,17.54
2018-08-27T09:25:29.806Z,17.53
2018-08-27T09:26:29.573Z,17.65
2018-08-27T09:27:28.056Z,17.51
2018-08-27T09:28:28.281Z,17.54
2018-08-27T09:29:28.132Z,17.62
2018-08-27T09:30:30.159Z,17.66
2018-08-27T09:31:29.902Z,17.57
2018-08-27T09:32:30.200Z,17.62
2018-08-27T09:33:27.841Z,17.77
2018-08-27T09:34:27.654Z,17.76
2018-08-27T09:35:27.856Z,17.83
2018-08-27T09:36:28.386Z,17.84
2018-08-27T09:37:27.922Z,17.79
2018-08-27T09:38:27.815Z,17.84
2018-08-27T09:39:28.285Z,17.65
2018-08-27T09:40:28.361Z,17.71
2018-08-27T09:41:28.041Z,17.66
2018-08-27T09:42:27.837Z,17.60
2018-08-27T09:43:27.864Z,17.65
2018-08-27T09:44:28.342Z,17.74
2018-08-27T09:45:28.148Z,17.74
2018-08-27T09:46:27.843Z,17.60
2018-08-27T09:48:31.277Z,17.66
2018-08-27T09:49:27.780Z,17.62
2018-08-27T09:50:28.211Z,17.62
2018-08-27T09:51:28.213Z,17.70
2018-08-27T09:52:28.351Z,17.68
2018-08-27T09:53:28.224Z,17.79
2018-08-27T09:54:27.513Z,17.68
2018-08-27T09:55:28.357Z,17.74
2018-08-27T09:56:27.794Z,17.73
2018-08-27T09:57:27.856Z,17.79
2018-08-27T09:58:28.580Z,17.66
2018-08-27T09:59:28.092Z,17.62
2018-08-27T10:00:29.372Z,17.74
2018-08-27T10:01:27.793Z,17.83
2018-08-27T10:02:27.858Z,17.80
2018-08-27T10:03:27.798Z,17.95
2018-08-27T10:04:30.282Z,18.01
2018-08-27T10:05:28.347Z,17.94
2018-08-27T10:06:30.305Z,18.01
2018-08-27T10:07:28.098Z,18.11
2018-08-27T10:08:28.294Z,18.02
2018-08-27T10:09:28.014Z,18.09
2018-08-27T10:10:27.573Z,18.09
2018-08-27T10:11:30.285Z,18.14
2018-08-27T10:12:28.230Z,18.14
2018-08-27T10:13:28.209Z,18.32
2018-08-27T10:14:27.743Z,18.25
2018-08-27T10:15:27.862Z,18.39
2018-08-27T10:16:28.616Z,18.25
2018-08-27T10:17:27.973Z,18.20
2018-08-27T10:18:27.724Z,18.17
2018-08-27T10:19:27.836Z,18.29
2018-08-27T10:20:27.344Z,18.26
2018-08-27T10:21:27.802Z,18.41
2018-08-27T10:22:28.822Z,18.41
2018-08-27T10:23:28.293Z,18.44
2018-08-27T10:24:27.797Z,18.51
2018-08-27T10:25:28.341Z,18.42
2018-08-27T10:26:27.374Z,18.39
2018-08-27T10:27:27.758Z,18.49
2018-08-27T10:28:29.404Z,18.57
2018-08-27T10:29:28.255Z,18.62
2018-08-27T10:30:34.374Z,18.57
2018-08-27T10:31:30.380Z,18.51
2018-08-27T10:32:28.289Z,18.49
2018-08-27T10:33:28.190Z,18.51
2018-08-27T10:34:27.834Z,18.51
2018-08-27T10:35:28.193Z,18.54
2018-08-27T10:36:27.800Z,18.57
2018-08-27T10:37:27.870Z,18.56
2018-08-27T10:38:33.688Z,18.69
2018-08-27T10:39:28.216Z,18.74
2018-08-27T10:40:30.226Z,18.74
2018-08-27T10:41:27.874Z,18.83
2018-08-27T10:42:27.655Z,18.78
2018-08-27T10:43:30.133Z,18.75
2018-08-27T10:44:30.334Z,18.91
2018-08-27T10:45:27.894Z,18.96
2018-08-27T10:46:28.203Z,19.13
2018-08-27T10:47:28.286Z,19.07
2018-08-27T10:48:28.074Z,19.02
2018-08-27T10:49:27.661Z,19.16
2018-08-27T10:50:28.083Z,19.17
2018-08-27T10:51:27.815Z,19.23
2018-08-27T10:52:27.903Z,19.28
2018-08-27T10:53:27.637Z,19.52
2018-08-27T10:54:27.827Z,19.34
2018-08-27T10:55:27.693Z,19.35
2018-08-27T10:56:29.867Z,19.34
2018-08-27T10:57:27.922Z,19.30
2018-08-27T10:58:28.319Z,19.47
2018-08-27T10:59:27.772Z,19.50
2018-08-27T11:00:30.289Z,19.47
2018-08-27T11:01:27.810Z,19.46
2018-08-27T11:02:27.881Z,19.50
2018-08-27T11:03:28.174Z,19.47
2018-08-27T11:04:28.303Z,19.38
2018-08-27T11:05:27.871Z,19.40
2018-08-27T11:06:27.884Z,19.49
2018-08-27T11:07:27.883Z,19.35
2018-08-27T11:08:27.821Z,19.49
2018-08-27T11:09:27.836Z,19.61
2018-08-27T11:10:27.737Z,19.52
2018-08-27T11:11:27.321Z,19.46
2018-08-27T11:12:27.681Z,19.43
2018-08-27T11:13:27.997Z,19.47
2018-08-27T11:14:28.178Z,19.64
2018-08-27T11:15:27.864Z,19.65
2018-08-27T11:16:27.330Z,19.71
2018-08-27T11:17:27.835Z,19.85
2018-08-27T11:18:28.163Z,19.89
2018-08-27T11:19:28.611Z,20.01
2018-08-27T11:20:28.086Z,20.17
2018-08-27T11:21:27.897Z,20.13
2018-08-27T11:22:27.823Z,20.15
2018-08-27T11:23:28.301Z,20.27
2018-08-27T11:24:27.646Z,20.20
2018-08-27T11:25:28.537Z,20.31
2018-08-27T11:26:27.884Z,20.57
2018-08-27T11:27:27.701Z,20.56
2018-08-27T11:28:27.899Z,21.09
2018-08-27T11:29:28.005Z,21.00
2018-08-27T11:30:28.181Z,21.06
2018-08-27T11:31:27.902Z,21.22
2018-08-27T11:32:27.676Z,21.37
2018-08-27T11:33:27.802Z,21.09
2018-08-27T11:34:27.824Z,20.98
2018-08-27T11:35:28.205Z,21.22
2018-08-27T11:36:28.167Z,21.12
2018-08-27T11:37:27.203Z,21.09
2018-08-27T11:38:27.825Z,20.87
2018-08-27T11:39:27.829Z,20.82
2018-08-27T11:40:27.880Z,20.78
2018-08-27T11:41:27.843Z,20.71
2018-08-27T11:42:27.235Z,20.53
2018-08-27T11:43:28.008Z,20.44
2018-08-27T11:44:27.766Z,20.46
2018-08-27T11:45:28.184Z,20.54
2018-08-27T11:46:27.696Z,20.53
2018-08-27T11:47:27.642Z,20.48
2018-08-27T11:48:27.739Z,20.38
2018-08-27T11:50:27.687Z,20.31
2018-08-27T11:51:28.338Z,20.27
2018-08-27T11:52:28.186Z,20.30
2018-08-27T11:53:28.250Z,20.30
2018-08-27T11:54:27.889Z,20.23
2018-08-27T11:55:27.657Z,20.26
2018-08-27T11:56:26.200Z,20.20
2018-08-27T11:57:27.818Z,20.26
2018-08-27T11:58:28.493Z,20.10
2018-08-27T11:59:27.267Z,20.19
2018-08-27T12:00:27.836Z,20.26
2018-08-27T12:01:27.641Z,20.37
2018-08-27T12:02:29.661Z,20.27
2018-08-27T12:03:27.948Z,20.16
2018-08-27T12:04:28.292Z,20.25
2018-08-27T12:05:27.922Z,20.31
2018-08-27T12:06:27.920Z,20.42
2018-08-27T12:07:27.937Z,20.44
2018-08-27T12:08:27.836Z,20.53
2018-08-27T12:09:28.213Z,20.83
2018-08-27T12:10:27.836Z,20.72
2018-08-27T12:11:28.130Z,21.53
2018-08-27T12:12:27.606Z,22.33
2018-08-27T12:13:27.709Z,22.81
2018-08-27T12:14:28.219Z,23.21
2018-08-27T12:15:27.809Z,24.04
2018-08-27T12:16:27.680Z,24.80
2018-08-27T12:17:27.966Z,24.63
2018-08-27T12:18:28.842Z,24.42
2018-08-27T12:19:28.192Z,24.59
2018-08-27T12:20:27.624Z,24.83
2018-08-27T12:21:28.133Z,25.02
2018-08-27T12:22:28.239Z,25.19
2018-08-27T12:23:27.702Z,26.06
2018-08-27T12:24:27.925Z,26.00
2018-08-27T12:25:27.681Z,25.51
2018-08-27T12:26:27.848Z,25.74
2018-08-27T12:27:27.930Z,26.27
2018-08-27T12:28:27.896Z,26.46
2018-08-27T12:29:27.822Z,26.98
2018-08-27T12:30:27.873Z,26.36
2018-08-27T12:31:27.599Z,27.62
2018-08-27T12:32:27.940Z,28.13
2018-08-27T12:33:29.392Z,27.71
2018-08-27T12:34:28.034Z,27.74
2018-08-27T12:35:28.136Z,27.72
2018-08-27T12:36:27.860Z,27.81
2018-08-27T12:37:27.872Z,28.67
2018-08-27T12:38:28.215Z,28.54
2018-08-27T12:39:28.418Z,28.57
2018-08-27T12:40:28.260Z,28.23
2018-08-27T12:41:27.992Z,28.30
2018-08-27T12:42:27.952Z,28.30
2018-08-27T12:43:28.244Z,28.39
2018-08-27T12:44:27.860Z,28.98
2018-08-27T12:45:27.862Z,28.91
2018-08-27T12:46:27.741Z,29.36
2018-08-27T12:47:28.481Z,30.22
2018-08-27T12:48:27.863Z,28.98
2018-08-27T12:49:28.440Z,27.74
2018-08-27T12:50:28.230Z,26.79
2018-08-27T12:51:28.299Z,25.81
2018-08-27T12:52:28.067Z,25.11
2018-08-27T12:53:28.368Z,25.54
2018-08-27T12:54:28.293Z,26.56
2018-08-27T12:55:28.292Z,25.74